createdAt,value
2023-03-06T00:01:31.923Z,10.57
2023-03-06T00:03:05.461Z,14.35
2023-03-06T00:04:37.614Z,10.95
2023-03-06T00:06:10.818Z,10.15
2023-03-06T00:07:45.283Z,8.85
2023-03-06T00:09:18.422Z,11.00
2023-03-06T00:10:52.999Z,10.38
2023-03-06T00:12:27.687Z,8.70
2023-03-06T00:14:00.948Z,9.95
2023-03-06T00:15:33.770Z,11.32
2023-03-06T00:17:07.010Z,14.00
2023-03-06T00:18:39.119Z,10.70
2023-03-06T00:20:13.978Z,10.98
2023-03-06T00:21:47.191Z,7.70
2023-03-06T00:23:20.360Z,10.55
2023-03-06T00:24:53.856Z,11.10
2023-03-06T00:26:28.526Z,9.60
2023-03-06T00:28:01.805Z,10.57
2023-03-06T00:29:35.088Z,13.15
2023-03-06T00:31:08.248Z,9.30
2023-03-06T00:32:42.286Z,9.05
2023-03-06T00:34:16.024Z,8.82
2023-03-06T00:35:49.263Z,10.38
2023-03-06T00:37:23.809Z,11.55
2023-03-06T00:38:57.145Z,11.15
2023-03-06T00:40:31.634Z,14.68
2023-03-06T00:42:07.945Z,12.27
2023-03-06T00:43:41.258Z,9.15
2023-03-06T00:45:13.714Z,10.00
2023-03-06T00:46:46.847Z,10.57
2023-03-06T00:48:20.026Z,9.93
2023-03-06T00:49:53.129Z,8.73
2023-03-06T00:51:26.611Z,12.93
2023-03-06T00:52:58.864Z,11.93
2023-03-06T00:54:31.994Z,8.68
2023-03-06T00:56:04.218Z,10.48
2023-03-06T00:57:39.124Z,13.55
2023-03-06T00:59:12.469Z,11.68
2023-03-06T01:00:46.490Z,7.97
2023-03-06T01:02:19.656Z,13.00
2023-03-06T01:03:52.922Z,10.35
2023-03-06T01:05:27.649Z,22.55
2023-03-06T01:07:00.783Z,12.50
2023-03-06T01:08:33.912Z,12.90
2023-03-06T01:10:08.248Z,12.05
2023-03-06T01:11:41.548Z,12.18
2023-03-06T01:13:16.055Z,10.15
2023-03-06T01:14:48.172Z,11.63
2023-03-06T01:16:21.953Z,8.95
2023-03-06T01:17:55.384Z,10.82
2023-03-06T01:19:27.699Z,20.63
2023-03-06T01:21:00.804Z,24.88
2023-03-06T01:22:33.919Z,24.23
2023-03-06T01:24:07.515Z,21.15
2023-03-06T01:25:40.663Z,23.17
2023-03-06T01:27:13.869Z,16.85
2023-03-06T01:28:51.175Z,16.55
2023-03-06T01:30:23.389Z,16.77
2023-03-06T01:31:56.618Z,14.80
2023-03-06T01:33:29.706Z,17.02
2023-03-06T01:35:03.974Z,19.35
2023-03-06T01:36:37.343Z,19.48
2023-03-06T01:38:10.580Z,21.70
2023-03-06T01:39:44.007Z,18.73
2023-03-06T01:41:17.566Z,14.38
2023-03-06T01:42:51.978Z,17.13
2023-03-06T01:44:25.595Z,12.75
2023-03-06T01:46:35.192Z,16.90
2023-03-06T01:48:09.024Z,20.40
2023-03-06T01:49:43.148Z,23.98
2023-03-06T01:51:16.234Z,24.80
2023-03-06T01:52:54.107Z,21.40
2023-03-06T01:54:32.377Z,31.38
2023-03-06T01:56:04.972Z,41.65
2023-03-06T01:57:42.094Z,38.90
2023-03-06T01:59:16.115Z,30.35
2023-03-06T02:00:50.769Z,21.30
2023-03-06T02:02:23.979Z,15.10
2023-03-06T02:03:57.354Z,17.70
2023-03-06T02:05:30.931Z,12.52
2023-03-06T02:07:05.907Z,19.52
2023-03-06T02:08:40.941Z,13.07
2023-03-06T02:10:15.206Z,16.23
2023-03-06T02:11:48.732Z,14.43
2023-03-06T02:13:21.011Z,14.95
2023-03-06T02:14:58.489Z,14.50
2023-03-06T02:16:35.281Z,14.77
2023-03-06T02:18:08.600Z,14.70
2023-03-06T02:19:52.639Z,14.63
2023-03-06T02:21:28.324Z,15.02
2023-03-06T02:23:07.343Z,16.17
2023-03-06T02:24:47.113Z,17.45
2023-03-06T02:26:21.468Z,18.10
2023-03-06T02:27:54.580Z,14.18
2023-03-06T02:29:30.263Z,13.43
2023-03-06T02:31:08.814Z,17.92
2023-03-06T02:32:42.156Z,13.45
2023-03-06T02:34:53.798Z,14.07
2023-03-06T02:36:26.642Z,16.02
2023-03-06T02:38:03.790Z,11.82
2023-03-06T02:39:40.795Z,17.13
2023-03-06T02:41:14.388Z,12.73
2023-03-06T02:42:50.914Z,14.85
2023-03-06T02:44:24.346Z,15.27
2023-03-06T02:45:57.669Z,15.02
2023-03-06T02:47:31.620Z,16.15
2023-03-06T02:49:06.296Z,17.42
2023-03-06T02:50:39.682Z,16.35
2023-03-06T02:52:11.971Z,17.88
2023-03-06T02:53:45.824Z,15.07
2023-03-06T02:55:18.583Z,13.90
2023-03-06T02:56:51.758Z,16.42
2023-03-06T02:58:26.344Z,13.15
2023-03-06T02:59:58.429Z,25.67
2023-03-06T03:01:32.523Z,19.83
2023-03-06T03:03:06.641Z,19.52
2023-03-06T03:04:38.819Z,21.90
2023-03-06T03:06:12.731Z,21.20
2023-03-06T03:07:47.506Z,15.52
2023-03-06T03:09:19.958Z,18.92
2023-03-06T03:10:53.238Z,12.55
2023-03-06T03:12:28.680Z,14.43
2023-03-06T03:14:03.593Z,16.98
2023-03-06T03:15:36.994Z,16.77
2023-03-06T03:17:10.143Z,15.05
2023-03-06T03:18:44.473Z,16.63
2023-03-06T03:20:21.068Z,14.02
2023-03-06T03:21:53.220Z,14.93
2023-03-06T03:23:29.186Z,18.83
2023-03-06T03:25:05.121Z,19.60
2023-03-06T03:26:37.597Z,16.50
2023-03-06T03:28:18.540Z,15.05
2023-03-06T03:29:53.294Z,12.65
2023-03-06T03:31:26.454Z,13.63
2023-03-06T03:33:00.221Z,13.50
2023-03-06T03:34:33.649Z,16.27
2023-03-06T03:36:07.694Z,24.83
2023-03-06T03:37:44.710Z,18.92
2023-03-06T03:39:19.054Z,15.02
2023-03-06T03:40:52.553Z,17.98
2023-03-06T03:42:25.868Z,15.60
2023-03-06T03:43:59.856Z,12.10
2023-03-06T03:45:34.833Z,16.75
2023-03-06T03:47:08.968Z,11.77
2023-03-06T03:48:42.890Z,15.05
2023-03-06T03:50:16.537Z,14.70
2023-03-06T03:51:50.811Z,15.93
2023-03-06T03:53:23.841Z,10.73
2023-03-06T03:54:57.294Z,9.25
2023-03-06T03:56:31.920Z,9.93
2023-03-06T03:58:10.228Z,6.93
2023-03-06T03:59:43.633Z,10.35
2023-03-06T04:01:39.779Z,7.53
2023-03-06T04:03:14.268Z,8.55
2023-03-06T04:04:50.834Z,6.88
2023-03-06T04:06:24.021Z,6.70
2023-03-06T04:07:57.406Z,24.27
2023-03-06T04:09:31.431Z,49.17
2023-03-06T04:11:05.222Z,17.95
2023-03-06T04:12:39.817Z,12.77
2023-03-06T04:14:13.128Z,6.68
2023-03-06T04:15:46.342Z,7.57
2023-03-06T04:17:20.981Z,6.95
2023-03-06T04:18:53.545Z,8.18
2023-03-06T04:20:27.969Z,48.08
2023-03-06T04:22:03.267Z,25.13
2023-03-06T04:23:37.606Z,7.72
2023-03-06T04:25:11.773Z,10.25
2023-03-06T04:26:45.029Z,10.15
2023-03-06T04:28:17.796Z,9.20
2023-03-06T04:29:51.185Z,7.78
2023-03-06T04:31:24.512Z,10.15
2023-03-06T04:32:58.573Z,12.57
2023-03-06T04:34:32.181Z,7.90
2023-03-06T04:36:06.180Z,10.07
2023-03-06T04:37:40.112Z,9.90
2023-03-06T04:39:14.318Z,7.20
2023-03-06T04:40:50.006Z,19.90
2023-03-06T04:42:23.403Z,10.05
2023-03-06T04:43:56.515Z,8.15
2023-03-06T04:45:30.819Z,8.18
2023-03-06T04:47:04.392Z,8.20
2023-03-06T04:48:39.145Z,11.55
2023-03-06T04:50:12.203Z,8.20
2023-03-06T04:51:45.322Z,8.75
2023-03-06T04:53:19.821Z,8.30
2023-03-06T04:54:53.345Z,8.80
2023-03-06T04:56:26.459Z,10.30
2023-03-06T04:58:00.141Z,8.48
2023-03-06T04:59:33.573Z,11.10
2023-03-06T05:01:07.213Z,9.40
2023-03-06T05:02:39.413Z,10.88
2023-03-06T05:04:13.897Z,9.43
2023-03-06T05:05:46.702Z,8.82
2023-03-06T05:07:19.866Z,14.25
2023-03-06T05:08:52.989Z,10.70
2023-03-06T05:10:26.189Z,11.30
2023-03-06T05:11:59.605Z,8.85
2023-03-06T05:13:32.805Z,11.02
2023-03-06T05:15:06.824Z,11.18
2023-03-06T05:16:40.015Z,14.27
2023-03-06T05:18:13.751Z,8.05
2023-03-06T05:19:48.353Z,10.43
2023-03-06T05:21:21.496Z,10.88
2023-03-06T05:22:54.590Z,13.00
2023-03-06T05:24:28.094Z,12.13
2023-03-06T05:26:01.269Z,12.55
2023-03-06T05:27:33.526Z,11.27
2023-03-06T05:29:06.934Z,12.07
2023-03-06T05:30:40.329Z,9.80
2023-03-06T05:32:12.722Z,9.75
2023-03-06T05:33:46.113Z,9.55
2023-03-06T05:35:22.783Z,11.07
2023-03-06T05:36:56.266Z,11.07
2023-03-06T05:38:29.558Z,14.10
2023-03-06T05:40:06.680Z,8.50
2023-03-06T05:41:39.867Z,14.45
2023-03-06T05:43:14.294Z,11.45
2023-03-06T05:44:47.682Z,11.75
2023-03-06T05:46:20.868Z,11.82
2023-03-06T05:47:54.109Z,15.70
2023-03-06T05:49:27.966Z,9.30
2023-03-06T05:51:03.595Z,12.48
2023-03-06T05:52:36.874Z,8.57
2023-03-06T05:54:10.252Z,10.77
2023-03-06T05:55:43.574Z,10.25
2023-03-06T05:57:16.715Z,9.27
2023-03-06T05:58:51.212Z,14.15
2023-03-06T06:00:25.058Z,24.38
2023-03-06T06:01:58.876Z,11.07
2023-03-06T06:03:31.998Z,10.90
2023-03-06T06:05:05.576Z,14.60
2023-03-06T06:06:40.238Z,9.88
2023-03-06T06:08:13.730Z,9.30
2023-03-06T06:09:46.929Z,10.75
2023-03-06T06:11:20.950Z,13.05
2023-03-06T06:12:54.147Z,19.83
2023-03-06T06:14:27.603Z,15.15
2023-03-06T06:16:00.805Z,12.63
2023-03-06T06:17:34.259Z,10.88
2023-03-06T06:19:07.340Z,10.68
2023-03-06T06:20:40.757Z,12.50
2023-03-06T06:22:15.435Z,10.30
2023-03-06T06:23:48.804Z,7.75
2023-03-06T06:25:22.036Z,7.43
2023-03-06T06:26:57.401Z,8.23
2023-03-06T06:28:31.404Z,8.98
2023-03-06T06:30:05.285Z,9.10
2023-03-06T06:31:39.029Z,7.40
2023-03-06T06:33:12.383Z,9.57
2023-03-06T06:34:45.499Z,15.02
2023-03-06T06:36:20.581Z,9.60
2023-03-06T06:37:55.131Z,7.68
2023-03-06T06:39:29.051Z,10.07
2023-03-06T06:41:33.461Z,8.32
2023-03-06T06:42:57.934Z,9.27
2023-03-06T06:44:31.475Z,9.57
2023-03-06T06:46:31.508Z,10.07
2023-03-06T06:47:59.194Z,11.45
2023-03-06T06:49:33.168Z,7.28
2023-03-06T06:51:06.896Z,9.77
2023-03-06T06:52:40.239Z,9.45
2023-03-06T06:54:14.976Z,10.98
2023-03-06T06:55:48.280Z,12.90
2023-03-06T06:57:21.880Z,13.70
2023-03-06T06:59:03.859Z,13.20
2023-03-06T07:00:43.815Z,12.50
2023-03-06T07:02:17.649Z,13.75
2023-03-06T07:03:50.881Z,9.52
2023-03-06T07:05:24.042Z,6.90
2023-03-06T07:06:57.440Z,7.13
2023-03-06T07:08:30.828Z,14.60
2023-03-06T07:10:06.816Z,7.78
2023-03-06T07:11:40.608Z,8.38
2023-03-06T07:13:13.841Z,8.02
2023-03-06T07:14:47.134Z,10.27
2023-03-06T07:16:20.404Z,8.95
2023-03-06T07:17:53.596Z,7.40
2023-03-06T07:19:27.154Z,9.98
2023-03-06T07:21:01.393Z,8.35
2023-03-06T07:22:49.921Z,6.68
2023-03-06T07:24:23.741Z,9.18
2023-03-06T07:25:59.378Z,9.98
2023-03-06T07:27:32.793Z,12.15
2023-03-06T07:29:06.010Z,9.45
2023-03-06T07:30:41.159Z,8.60
2023-03-06T07:32:14.706Z,12.45
2023-03-06T07:33:48.175Z,12.68
2023-03-06T07:35:21.396Z,11.63
2023-03-06T07:36:54.502Z,12.05
2023-03-06T07:38:27.927Z,13.90
2023-03-06T07:40:01.270Z,10.63
2023-03-06T07:41:36.053Z,10.05
2023-03-06T07:43:19.140Z,8.65
2023-03-06T07:45:03.255Z,10.25
2023-03-06T07:46:36.714Z,12.55
2023-03-06T07:48:10.866Z,8.68
2023-03-06T07:49:44.019Z,8.55
2023-03-06T07:51:19.643Z,7.30
2023-03-06T07:52:53.860Z,8.00
2023-03-06T07:54:27.108Z,10.10
2023-03-06T07:56:00.477Z,10.13
2023-03-06T07:57:35.616Z,10.75
2023-03-06T07:59:08.733Z,10.02
2023-03-06T08:00:41.869Z,11.32
2023-03-06T08:02:15.068Z,8.68
2023-03-06T08:03:50.317Z,8.23
2023-03-06T08:05:23.562Z,10.95
2023-03-06T08:06:57.639Z,9.27
2023-03-06T08:08:30.758Z,7.85
2023-03-06T08:10:04.682Z,8.68
2023-03-06T08:11:37.770Z,10.95
2023-03-06T08:13:12.296Z,9.20
2023-03-06T08:14:45.352Z,9.25
2023-03-06T08:16:21.249Z,7.78
2023-03-06T08:17:54.374Z,9.63
2023-03-06T08:19:27.532Z,7.50
2023-03-06T08:21:05.262Z,11.82
2023-03-06T08:22:39.134Z,9.32
2023-03-06T08:24:13.294Z,10.25
2023-03-06T08:25:46.486Z,8.07
2023-03-06T08:27:19.613Z,9.15
2023-03-06T08:28:55.652Z,11.35
2023-03-06T08:30:28.797Z,9.02
2023-03-06T08:32:02.130Z,10.98
2023-03-06T08:33:35.597Z,11.57
2023-03-06T08:35:09.875Z,9.65
2023-03-06T08:36:43.233Z,7.90
2023-03-06T08:38:16.530Z,10.95
2023-03-06T08:39:49.813Z,9.30
2023-03-06T08:41:23.686Z,9.52
2023-03-06T08:42:56.812Z,8.13
2023-03-06T08:44:31.379Z,10.02
2023-03-06T08:46:05.417Z,9.40
2023-03-06T08:47:39.095Z,9.75
2023-03-06T08:49:14.051Z,9.27
2023-03-06T08:50:47.789Z,10.80
2023-03-06T08:52:21.013Z,8.70
2023-03-06T08:53:54.516Z,9.68
2023-03-06T08:55:28.414Z,9.88
2023-03-06T08:57:01.612Z,9.38
2023-03-06T08:58:35.011Z,8.65
2023-03-06T09:00:12.943Z,8.55
2023-03-06T09:01:46.751Z,9.02
2023-03-06T09:03:20.056Z,8.85
2023-03-06T09:04:53.967Z,7.68
2023-03-06T09:06:28.947Z,9.27
2023-03-06T09:08:02.152Z,9.60
2023-03-06T09:09:35.317Z,11.35
2023-03-06T09:11:09.665Z,8.00
2023-03-06T09:12:50.643Z,9.73
2023-03-06T09:14:25.195Z,9.07
2023-03-06T09:15:59.766Z,12.32
2023-03-06T09:17:32.902Z,8.70
2023-03-06T09:19:06.909Z,11.85
2023-03-06T09:20:40.018Z,8.40
2023-03-06T09:22:14.614Z,11.00
2023-03-06T09:23:47.792Z,8.77
2023-03-06T09:25:23.525Z,9.27
2023-03-06T09:26:56.589Z,11.38
2023-03-06T09:28:29.943Z,9.98
2023-03-06T09:30:03.424Z,11.38
2023-03-06T09:31:38.237Z,10.45
2023-03-06T09:33:11.324Z,11.02
2023-03-06T09:34:44.466Z,10.60
2023-03-06T09:36:20.492Z,17.58
2023-03-06T09:37:54.126Z,10.48
2023-03-06T09:39:27.843Z,12.65
2023-03-06T09:41:06.133Z,10.75
2023-03-06T09:42:39.229Z,8.43
2023-03-06T09:44:17.772Z,7.82
2023-03-06T09:45:50.990Z,12.15
2023-03-06T09:47:42.202Z,12.40
2023-03-06T09:49:38.505Z,4.22
2023-03-06T09:51:16.623Z,9.05
2023-03-06T09:53:04.705Z,9.63
2023-03-06T09:54:44.763Z,11.05
2023-03-06T09:56:20.768Z,10.55
2023-03-06T09:57:59.168Z,9.50
2023-03-06T09:59:33.278Z,12.30
2023-03-06T10:01:16.568Z,10.68
2023-03-06T10:02:57.279Z,10.30
2023-03-06T10:04:37.428Z,11.43
2023-03-06T10:06:16.317Z,12.27
2023-03-06T10:07:54.191Z,8.70
2023-03-06T10:09:32.433Z,13.15
2023-03-06T10:11:09.811Z,13.25
2023-03-06T10:12:49.202Z,8.27
2023-03-06T10:14:31.701Z,10.30
2023-03-06T10:16:13.695Z,12.55
2023-03-06T10:17:47.431Z,12.05
2023-03-06T10:19:22.587Z,10.73
2023-03-06T10:21:13.400Z,10.55
2023-03-06T10:23:06.810Z,11.00
2023-03-06T10:24:55.870Z,10.65
2023-03-06T10:26:37.329Z,8.02
2023-03-06T10:28:17.566Z,10.80
2023-03-06T10:30:03.871Z,16.05
2023-03-06T10:31:40.013Z,13.38
2023-03-06T10:33:24.198Z,10.25
2023-03-06T10:35:02.220Z,9.32
2023-03-06T10:36:35.560Z,14.23
2023-03-06T10:38:19.735Z,10.00
2023-03-06T10:39:58.485Z,13.35
2023-03-06T10:41:35.869Z,10.80
2023-03-06T10:43:12.547Z,10.02
2023-03-06T10:44:46.002Z,10.63
2023-03-06T10:46:29.685Z,9.63
2023-03-06T10:48:12.408Z,12.57
2023-03-06T10:50:00.743Z,9.70
2023-03-06T10:51:35.597Z,11.25
2023-03-06T10:53:20.908Z,10.98
2023-03-06T10:54:54.057Z,10.98
2023-03-06T10:56:29.195Z,12.07
2023-03-06T10:58:18.682Z,10.55
2023-03-06T10:59:54.431Z,9.20
2023-03-06T11:01:27.701Z,14.48
2023-03-06T11:03:23.505Z,9.30
2023-03-06T11:05:00.433Z,8.80
2023-03-06T11:06:35.856Z,14.18
2023-03-06T11:08:21.845Z,12.57
2023-03-06T11:10:05.672Z,12.13
2023-03-06T11:11:38.816Z,10.90
2023-03-06T11:13:23.817Z,11.32
2023-03-06T11:15:24.686Z,9.05
2023-03-06T11:16:57.754Z,13.15
2023-03-06T11:18:35.976Z,10.13
2023-03-06T11:20:18.834Z,9.05
2023-03-06T11:22:05.228Z,9.50
2023-03-06T11:23:45.125Z,8.73
2023-03-06T11:25:21.695Z,13.10
2023-03-06T11:26:57.808Z,11.32
2023-03-06T11:28:34.467Z,8.43
2023-03-06T11:30:18.720Z,9.57
2023-03-06T18:22:16.234Z,38.10
2023-03-06T18:23:49.699Z,36.85
2023-03-06T18:25:23.048Z,41.88
2023-03-06T18:26:56.431Z,31.25
2023-03-06T18:28:30.840Z,37.72
2023-03-06T18:30:05.053Z,23.38
2023-03-06T18:31:40.530Z,21.02
2023-03-06T18:33:13.693Z,55.50
2023-03-06T18:34:47.772Z,107.65
2023-03-06T18:36:22.849Z,128.13
2023-03-06T18:37:57.819Z,116.80
2023-03-06T18:39:31.056Z,66.93
2023-03-06T18:41:04.807Z,48.10
2023-03-06T18:42:37.980Z,42.55
2023-03-06T18:44:15.419Z,47.00
2023-03-06T18:45:55.316Z,43.22
2023-03-06T18:47:28.514Z,41.20
2023-03-06T18:49:02.035Z,54.95
2023-03-06T18:50:36.142Z,53.72
2023-03-06T18:52:09.470Z,64.70
2023-03-06T18:53:44.935Z,76.35
2023-03-06T18:55:18.338Z,69.03
2023-03-06T18:56:51.548Z,63.75
2023-03-06T18:58:24.739Z,56.38
2023-03-06T18:59:58.280Z,90.55
2023-03-06T19:01:31.909Z,137.38
2023-03-06T19:03:05.352Z,97.50
2023-03-06T19:04:38.914Z,113.35
2023-03-06T19:06:13.692Z,106.40
2023-03-06T19:07:46.818Z,105.90
2023-03-06T19:09:21.916Z,96.07
2023-03-06T19:10:56.496Z,101.10
2023-03-06T19:12:30.198Z,94.20
2023-03-06T19:14:03.567Z,84.45
2023-03-06T19:15:42.683Z,86.35
2023-03-06T19:17:15.798Z,84.60
2023-03-06T19:18:49.307Z,107.85
2023-03-06T19:20:23.752Z,129.35
2023-03-06T19:21:59.051Z,97.38
2023-03-06T19:23:32.370Z,92.30
2023-03-06T19:25:09.388Z,74.80
2023-03-06T19:26:42.869Z,76.97
2023-03-06T19:28:16.050Z,81.20
2023-03-06T19:29:49.530Z,77.50
2023-03-06T19:31:25.365Z,75.32
2023-03-06T19:32:58.545Z,78.75
2023-03-06T19:34:31.723Z,81.88
2023-03-06T19:36:06.126Z,179.35
2023-03-06T19:37:39.604Z,95.55
2023-03-06T19:39:13.028Z,81.03
2023-03-06T19:40:51.810Z,96.38
2023-03-06T19:42:25.051Z,103.40
2023-03-06T19:44:00.598Z,100.55
2023-03-06T19:45:34.272Z,112.38
2023-03-06T19:47:07.357Z,84.75
2023-03-06T19:48:40.784Z,81.22
2023-03-06T19:50:14.209Z,78.57
2023-03-06T19:51:47.359Z,82.80
2023-03-06T19:53:21.683Z,63.42
2023-03-06T19:54:55.132Z,78.95
2023-03-06T19:56:31.981Z,59.22
2023-03-06T19:58:05.801Z,37.45
2023-03-06T19:59:38.931Z,46.03
2023-03-06T20:01:15.005Z,46.75
2023-03-06T20:02:48.370Z,25.83
2023-03-06T20:04:21.696Z,28.67
2023-03-06T20:05:54.819Z,29.65
2023-03-06T20:07:28.050Z,23.17
2023-03-06T20:09:02.875Z,27.77
2023-03-06T20:10:38.091Z,22.70
2023-03-06T20:12:14.397Z,23.35
2023-03-06T20:13:48.079Z,22.05
2023-03-06T20:15:22.484Z,20.55
2023-03-06T20:16:56.080Z,18.13
2023-03-06T20:18:29.229Z,27.67
2023-03-06T20:20:02.674Z,26.58
2023-03-06T20:21:38.040Z,22.10
2023-03-06T20:23:11.800Z,24.42
2023-03-06T20:24:44.970Z,23.95
2023-03-06T20:26:18.220Z,28.10
2023-03-06T20:27:53.116Z,31.33
2023-03-06T20:29:28.402Z,30.55
2023-03-06T20:31:07.762Z,27.85
2023-03-06T20:32:40.919Z,35.08
2023-03-06T20:34:15.122Z,29.30
2023-03-06T20:35:48.331Z,28.42
2023-03-06T20:37:21.596Z,66.65
2023-03-06T20:38:54.726Z,51.30
2023-03-06T20:40:28.594Z,35.40
2023-03-06T20:42:01.825Z,62.80
2023-03-06T20:43:36.450Z,28.08
2023-03-06T20:45:10.462Z,24.48
2023-03-06T20:46:45.220Z,24.52
2023-03-06T20:48:18.358Z,36.90
2023-03-06T20:49:51.673Z,33.85
2023-03-06T20:51:25.936Z,20.95
2023-03-06T20:52:59.513Z,21.13
2023-03-06T20:54:32.688Z,26.58
2023-03-06T20:56:06.801Z,28.15
2023-03-06T20:57:39.918Z,19.83
2023-03-06T20:59:15.827Z,21.95
2023-03-06T21:00:48.962Z,21.52
2023-03-06T21:02:22.164Z,24.05
2023-03-06T21:03:56.796Z,24.08
2023-03-06T21:05:29.947Z,24.15
2023-03-06T21:07:03.063Z,23.63
2023-03-06T21:08:36.220Z,22.60
2023-03-06T21:10:10.844Z,52.08
2023-03-06T21:11:44.403Z,26.77
2023-03-06T21:13:17.663Z,29.40
2023-03-06T21:14:52.190Z,23.40
2023-03-06T21:16:27.173Z,24.05
2023-03-06T21:18:01.406Z,20.15
2023-03-06T21:19:34.561Z,25.38
2023-03-06T21:21:08.762Z,25.42
2023-03-06T21:22:41.919Z,19.88
2023-03-06T21:24:15.583Z,25.42
2023-03-06T21:25:49.522Z,27.73
2023-03-06T21:27:21.849Z,29.42
2023-03-06T21:28:55.135Z,24.10
2023-03-06T21:30:30.764Z,24.52
2023-03-06T21:32:04.008Z,27.33
2023-03-06T21:33:37.425Z,24.63
2023-03-06T21:35:10.673Z,30.75
2023-03-06T21:36:44.217Z,42.30
2023-03-06T21:38:16.545Z,26.23
2023-03-06T21:39:49.694Z,24.90
2023-03-06T21:41:25.325Z,22.95
2023-03-06T21:42:58.555Z,25.75
2023-03-06T21:44:31.728Z,18.88
2023-03-06T21:46:07.183Z,21.17
2023-03-06T21:47:41.094Z,23.17
2023-03-06T21:49:14.550Z,23.95
2023-03-06T21:50:47.731Z,24.60
2023-03-06T21:52:20.903Z,21.27
2023-03-06T21:53:55.142Z,23.13
2023-03-06T21:55:28.691Z,31.30
2023-03-06T21:57:01.849Z,60.92
2023-03-06T21:58:35.350Z,66.45
2023-03-06T22:00:12.765Z,37.00
2023-03-06T22:01:47.770Z,27.92
2023-03-06T22:03:21.138Z,29.55
2023-03-06T22:04:54.570Z,20.13
2023-03-06T22:06:29.605Z,27.85
2023-03-06T22:08:03.178Z,28.00
2023-03-06T22:09:37.408Z,36.38
2023-03-06T22:11:11.027Z,29.70
2023-03-06T22:12:45.818Z,31.02
2023-03-06T22:14:19.126Z,30.95
2023-03-06T22:15:52.387Z,32.90
2023-03-06T22:17:27.232Z,29.83
2023-03-06T22:19:00.587Z,30.70
2023-03-06T22:20:34.115Z,34.42
2023-03-06T22:22:08.738Z,35.47
2023-03-06T22:23:43.791Z,37.45
2023-03-06T22:25:17.082Z,30.92
2023-03-06T22:26:50.942Z,21.10
2023-03-06T22:28:24.326Z,20.63
2023-03-06T22:29:57.574Z,20.90
2023-03-06T22:31:30.828Z,17.00
2023-03-06T22:33:04.723Z,17.20
2023-03-06T22:34:37.948Z,21.98
2023-03-06T22:36:12.783Z,20.65
2023-03-06T22:37:45.902Z,21.92
2023-03-06T22:39:19.818Z,34.10
2023-03-06T22:40:57.131Z,72.40
2023-03-06T22:42:30.301Z,23.45
2023-03-06T22:44:03.819Z,26.88
2023-03-06T22:45:37.219Z,19.58
2023-03-06T22:47:10.428Z,18.05
2023-03-06T22:48:45.767Z,26.30
2023-03-06T22:50:19.472Z,26.23
2023-03-06T22:51:52.944Z,44.08
2023-03-06T22:53:26.089Z,21.15
2023-03-06T22:54:59.296Z,21.65
2023-03-06T22:56:32.916Z,29.35
2023-03-06T22:58:06.309Z,32.72
2023-03-06T22:59:39.450Z,29.75
2023-03-06T23:01:14.961Z,19.95
2023-03-06T23:02:48.207Z,25.42
2023-03-06T23:04:23.231Z,21.80
2023-03-06T23:05:56.417Z,20.98
2023-03-06T23:07:29.586Z,23.23
2023-03-06T23:09:09.258Z,19.52
2023-03-06T23:11:01.430Z,26.25
2023-03-06T23:12:53.042Z,21.23
2023-03-06T23:14:49.528Z,28.33
2023-03-06T23:16:41.635Z,20.95
2023-03-06T23:18:33.956Z,20.35
2023-03-06T23:20:27.083Z,20.35
2023-03-06T23:22:19.672Z,19.17
2023-03-06T23:24:11.393Z,22.52
2023-03-06T23:25:44.724Z,27.25
2023-03-06T23:27:19.324Z,21.48
2023-03-06T23:28:53.386Z,20.67
2023-03-06T23:30:26.700Z,20.42
2023-03-06T23:31:59.848Z,19.30
2023-03-06T23:33:33.034Z,22.58
2023-03-06T23:35:07.725Z,17.92
2023-03-06T23:36:42.221Z,18.92
2023-03-06T23:38:15.471Z,15.82
2023-03-06T23:39:49.481Z,16.30
2023-03-06T23:41:23.948Z,18.48
2023-03-06T23:42:56.097Z,16.83
2023-03-06T23:44:29.409Z,17.23
2023-03-06T23:46:01.632Z,20.85
2023-03-06T23:47:35.765Z,15.40
2023-03-06T23:49:08.997Z,18.92
2023-03-06T23:50:42.574Z,22.92
2023-03-06T23:52:17.067Z,28.27
2023-03-06T23:53:54.760Z,26.25
2023-03-06T23:55:27.849Z,15.75
2023-03-06T23:57:01.129Z,16.55
2023-03-06T23:58:34.454Z,14.00
